Brooks, Kentucky
Current Conditions -  °F | °C
As of 3:56 PM on Thursday 18 Dec 2014 (Local Time) from KSDF Reporting Station
Haze Haze  
Wind Chill:   Ceiling: 6000
Heat Index:   Visibility: 6mi
Dew Point: -5°   Wind: 0mph
Humidity: 64%   Direction: NA
Pressure: 30.22"   Gusts: NA
Location:  38.06°N, 85.71°W
Report Text: KSDF 182056Z 00000KT 6SM HZ FEW023 BKN060 OVC100 01/M05 A3022 RMK AO2 SLP239 T00111050 56011
Loading
Personal Weather Stations






























Interactive Weather Map New forecast layout! Learn more

10-Day Weather Forecast

Advertisements
Track Severe Weather on mobile